sensor_id;sensor_type;location;lat;lon;timestamp;P1;durP1;ratioP1;P2;durP2;ratioP2
51907;SDS011;39320;53.214;6.556;2023-05-13T00:00:38;7.10;;;5.82;;
51907;SDS011;39320;53.214;6.556;2023-05-13T00:03:03;8.48;;;5.50;;
51907;SDS011;39320;53.214;6.556;2023-05-13T00:05:29;7.85;;;5.97;;
51907;SDS011;39320;53.214;6.556;2023-05-13T00:07:55;7.07;;;6.28;;
51907;SDS011;39320;53.214;6.556;2023-05-13T00:10:21;8.85;;;5.68;;
51907;SDS011;39320;53.214;6.556;2023-05-13T00:12:48;5.95;;;5.35;;
51907;SDS011;39320;53.214;6.556;2023-05-13T00:15:14;6.30;;;4.85;;
51907;SDS011;39320;53.214;6.556;2023-05-13T00:17:39;6.57;;;5.72;;
51907;SDS011;39320;53.214;6.556;2023-05-13T00:20:05;5.95;;;5.05;;
51907;SDS011;39320;53.214;6.556;2023-05-13T00:22:32;6.72;;;5.53;;
51907;SDS011;39320;53.214;6.556;2023-05-13T00:24:57;7.65;;;5.47;;
51907;SDS011;39320;53.214;6.556;2023-05-13T00:27:23;6.60;;;6.00;;
51907;SDS011;39320;53.214;6.556;2023-05-13T00:29:49;5.70;;;4.90;;
51907;SDS011;39320;53.214;6.556;2023-05-13T00:32:15;6.80;;;4.88;;
51907;SDS011;39320;53.214;6.556;2023-05-13T00:34:41;7.65;;;5.13;;
51907;SDS011;39320;53.214;6.556;2023-05-13T00:37:06;7.65;;;5.65;;
51907;SDS011;39320;53.214;6.556;2023-05-13T00:39:34;6.82;;;5.35;;
51907;SDS011;39320;53.214;6.556;2023-05-13T00:42:00;5.95;;;4.97;;
51907;SDS011;39320;53.214;6.556;2023-05-13T00:44:28;6.05;;;5.45;;
51907;SDS011;39320;53.214;6.556;2023-05-13T00:46:54;5.88;;;5.13;;
51907;SDS011;39320;53.214;6.556;2023-05-13T00:49:20;8.90;;;5.25;;
51907;SDS011;39320;53.214;6.556;2023-05-13T00:51:46;6.40;;;5.50;;
51907;SDS011;39320;53.214;6.556;2023-05-13T00:54:13;7.30;;;6.60;;
51907;SDS011;39320;53.214;6.556;2023-05-13T00:56:39;6.10;;;5.50;;
51907;SDS011;39320;53.214;6.556;2023-05-13T00:59:05;11.88;;;6.03;;
51907;SDS011;39320;53.214;6.556;2023-05-13T01:01:47;6.45;;;5.13;;
51907;SDS011;39320;53.214;6.556;2023-05-13T01:04:24;7.05;;;5.45;;
51907;SDS011;39320;53.214;6.556;2023-05-13T01:09:59;7.00;;;5.45;;
51907;SDS011;39320;53.214;6.556;2023-05-13T01:12:31;7.10;;;5.75;;
51907;SDS011;39320;53.214;6.556;2023-05-13T01:15:03;7.72;;;5.97;;
51907;SDS011;39320;53.214;6.556;2023-05-13T01:17:51;6.88;;;6.10;;
51907;SDS011;39320;53.214;6.556;2023-05-13T01:20:29;7.35;;;5.35;;
51907;SDS011;39320;53.214;6.556;2023-05-13T01:22:56;6.85;;;6.15;;
51907;SDS011;39320;53.214;6.556;2023-05-13T01:25:22;8.73;;;6.28;;
51907;SDS011;39320;53.214;6.556;2023-05-13T01:27:49;7.35;;;5.93;;
51907;SDS011;39320;53.214;6.556;2023-05-13T01:30:16;8.27;;;6.05;;
51907;SDS011;39320;53.214;6.556;2023-05-13T01:32:42;6.97;;;6.28;;
51907;SDS011;39320;53.214;6.556;2023-05-13T01:35:08;6.88;;;6.13;;
51907;SDS011;39320;53.214;6.556;2023-05-13T01:37:36;7.20;;;6.20;;
51907;SDS011;39320;53.214;6.556;2023-05-13T01:40:05;6.47;;;5.78;;
51907;SDS011;39320;53.214;6.556;2023-05-13T01:42:32;7.45;;;6.25;;
51907;SDS011;39320;53.214;6.556;2023-05-13T01:44:59;7.75;;;6.70;;
51907;SDS011;39320;53.214;6.556;2023-05-13T01:47:25;6.85;;;6.25;;
51907;SDS011;39320;53.214;6.556;2023-05-13T01:49:53;11.38;;;6.90;;
51907;SDS011;39320;53.214;6.556;2023-05-13T01:52:19;7.18;;;6.45;;
51907;SDS011;39320;53.214;6.556;2023-05-13T01:54:45;9.27;;;6.78;;
51907;SDS011;39320;53.214;6.556;2023-05-13T01:57:11;7.45;;;6.75;;
51907;SDS011;39320;53.214;6.556;2023-05-13T01:59:36;7.55;;;6.60;;
51907;SDS011;39320;53.214;6.556;2023-05-13T02:02:02;7.82;;;6.95;;
51907;SDS011;39320;53.214;6.556;2023-05-13T02:04:31;8.10;;;7.30;;
51907;SDS011;39320;53.214;6.556;2023-05-13T02:06:57;8.18;;;7.38;;
51907;SDS011;39320;53.214;6.556;2023-05-13T02:09:22;8.25;;;7.30;;
51907;SDS011;39320;53.214;6.556;2023-05-13T02:11:48;7.53;;;6.65;;
51907;SDS011;39320;53.214;6.556;2023-05-13T02:14:18;7.85;;;7.10;;
51907;SDS011;39320;53.214;6.556;2023-05-13T02:16:44;7.97;;;6.90;;
51907;SDS011;39320;53.214;6.556;2023-05-13T02:19:10;7.32;;;6.60;;
51907;SDS011;39320;53.214;6.556;2023-05-13T02:21:36;7.75;;;7.05;;
51907;SDS011;39320;53.214;6.556;2023-05-13T02:24:01;7.65;;;6.88;;
51907;SDS011;39320;53.214;6.556;2023-05-13T02:26:27;8.38;;;6.90;;
51907;SDS011;39320;53.214;6.556;2023-05-13T02:28:54;7.47;;;6.80;;
51907;SDS011;39320;53.214;6.556;2023-05-13T02:31:20;8.52;;;7.07;;
51907;SDS011;39320;53.214;6.556;2023-05-13T02:33:45;7.40;;;6.80;;
51907;SDS011;39320;53.214;6.556;2023-05-13T02:36:11;7.47;;;6.60;;
51907;SDS011;39320;53.214;6.556;2023-05-13T02:38:37;7.88;;;7.18;;
51907;SDS011;39320;53.214;6.556;2023-05-13T02:41:03;8.57;;;6.95;;
51907;SDS011;39320;53.214;6.556;2023-05-13T02:43:29;8.50;;;7.60;;
51907;SDS011;39320;53.214;6.556;2023-05-13T02:45:55;9.05;;;7.40;;
51907;SDS011;39320;53.214;6.556;2023-05-13T02:48:21;8.25;;;7.55;;
51907;SDS011;39320;53.214;6.556;2023-05-13T02:50:46;9.55;;;7.28;;
51907;SDS011;39320;53.214;6.556;2023-05-13T02:53:12;8.63;;;7.65;;
51907;SDS011;39320;53.214;6.556;2023-05-13T02:55:38;9.23;;;7.38;;
51907;SDS011;39320;53.214;6.556;2023-05-13T02:58:04;8.18;;;7.43;;
51907;SDS011;39320;53.214;6.556;2023-05-13T03:00:29;8.60;;;7.78;;
51907;SDS011;39320;53.214;6.556;2023-05-13T03:02:55;9.38;;;8.35;;
51907;SDS011;39320;53.214;6.556;2023-05-13T03:05:21;9.65;;;7.75;;
51907;SDS011;39320;53.214;6.556;2023-05-13T03:07:47;8.40;;;7.60;;
51907;SDS011;39320;53.214;6.556;2023-05-13T03:10:13;9.20;;;7.93;;
51907;SDS011;39320;53.214;6.556;2023-05-13T03:12:39;9.95;;;8.95;;
51907;SDS011;39320;53.214;6.556;2023-05-13T03:15:04;11.63;;;8.18;;
51907;SDS011;39320;53.214;6.556;2023-05-13T03:17:31;8.57;;;7.63;;
51907;SDS011;39320;53.214;6.556;2023-05-13T03:19:57;12.77;;;8.00;;
51907;SDS011;39320;53.214;6.556;2023-05-13T03:22:23;9.52;;;8.52;;
51907;SDS011;39320;53.214;6.556;2023-05-13T03:24:49;9.65;;;8.75;;
51907;SDS011;39320;53.214;6.556;2023-05-13T03:27:14;9.48;;;7.90;;
51907;SDS011;39320;53.214;6.556;2023-05-13T03:29:40;9.43;;;8.63;;
51907;SDS011;39320;53.214;6.556;2023-05-13T03:32:06;9.60;;;8.52;;
51907;SDS011;39320;53.214;6.556;2023-05-13T03:34:32;9.23;;;8.20;;
51907;SDS011;39320;53.214;6.556;2023-05-13T03:37:00;10.45;;;9.27;;
51907;SDS011;39320;53.214;6.556;2023-05-13T03:39:26;9.57;;;8.68;;
51907;SDS011;39320;53.214;6.556;2023-05-13T03:41:51;9.43;;;8.45;;
51907;SDS011;39320;53.214;6.556;2023-05-13T03:44:17;10.68;;;8.85;;
51907;SDS011;39320;53.214;6.556;2023-05-13T03:46:43;9.60;;;8.75;;
51907;SDS011;39320;53.214;6.556;2023-05-13T03:49:09;9.55;;;8.45;;
51907;SDS011;39320;53.214;6.556;2023-05-13T03:51:34;10.45;;;9.38;;
51907;SDS011;39320;53.214;6.556;2023-05-13T03:54:00;11.95;;;9.57;;
51907;SDS011;39320;53.214;6.556;2023-05-13T03:56:26;9.23;;;8.32;;
51907;SDS011;39320;53.214;6.556;2023-05-13T03:58:52;13.35;;;9.30;;
51907;SDS011;39320;53.214;6.556;2023-05-13T04:01:18;10.20;;;9.10;;
51907;SDS011;39320;53.214;6.556;2023-05-13T04:03:45;10.18;;;9.18;;
51907;SDS011;39320;53.214;6.556;2023-05-13T04:06:12;10.90;;;8.27;;
51907;SDS011;39320;53.214;6.556;2023-05-13T04:08:40;9.88;;;8.63;;
51907;SDS011;39320;53.214;6.556;2023-05-13T04:11:06;9.32;;;8.40;;
51907;SDS011;39320;53.214;6.556;2023-05-13T04:13:35;10.18;;;8.40;;
51907;SDS011;39320;53.214;6.556;2023-05-13T04:16:01;10.43;;;8.45;;
51907;SDS011;39320;53.214;6.556;2023-05-13T04:18:30;9.57;;;8.00;;
51907;SDS011;39320;53.214;6.556;2023-05-13T04:20:57;9.77;;;8.77;;
51907;SDS011;39320;53.214;6.556;2023-05-13T04:23:23;9.18;;;8.32;;
51907;SDS011;39320;53.214;6.556;2023-05-13T04:25:52;8.82;;;7.93;;
51907;SDS011;39320;53.214;6.556;2023-05-13T04:28:18;9.82;;;8.63;;
51907;SDS011;39320;53.214;6.556;2023-05-13T04:30:44;10.05;;;8.77;;
51907;SDS011;39320;53.214;6.556;2023-05-13T04:33:10;7.72;;;6.97;;
51907;SDS011;39320;53.214;6.556;2023-05-13T04:35:36;10.05;;;8.13;;
51907;SDS011;39320;53.214;6.556;2023-05-13T04:38:03;8.38;;;7.45;;
51907;SDS011;39320;53.214;6.556;2023-05-13T04:40:29;7.68;;;6.97;;
51907;SDS011;39320;53.214;6.556;2023-05-13T04:42:55;8.45;;;7.70;;
51907;SDS011;39320;53.214;6.556;2023-05-13T04:45:20;8.18;;;7.38;;
51907;SDS011;39320;53.214;6.556;2023-05-13T04:47:47;7.80;;;7.00;;
51907;SDS011;39320;53.214;6.556;2023-05-13T04:50:13;8.82;;;7.03;;
51907;SDS011;39320;53.214;6.556;2023-05-13T04:52:39;8.65;;;6.85;;
51907;SDS011;39320;53.214;6.556;2023-05-13T04:55:10;7.68;;;6.97;;
51907;SDS011;39320;53.214;6.556;2023-05-13T04:57:38;8.05;;;6.78;;
51907;SDS011;39320;53.214;6.556;2023-05-13T05:00:04;7.57;;;6.80;;
51907;SDS011;39320;53.214;6.556;2023-05-13T05:02:32;8.18;;;7.38;;
51907;SDS011;39320;53.214;6.556;2023-05-13T05:04:58;7.10;;;6.28;;
51907;SDS011;39320;53.214;6.556;2023-05-13T05:07:23;7.93;;;6.38;;
51907;SDS011;39320;53.214;6.556;2023-05-13T05:09:52;9.05;;;7.32;;
51907;SDS011;39320;53.214;6.556;2023-05-13T05:12:21;8.32;;;6.70;;
51907;SDS011;39320;53.214;6.556;2023-05-13T05:14:47;7.25;;;6.20;;
51907;SDS011;39320;53.214;6.556;2023-05-13T05:17:13;7.72;;;6.18;;
51907;SDS011;39320;53.214;6.556;2023-05-13T05:19:39;8.50;;;5.78;;
51907;SDS011;39320;53.214;6.556;2023-05-13T05:22:04;7.97;;;6.63;;
51907;SDS011;39320;53.214;6.556;2023-05-13T05:24:30;7.88;;;6.57;;
51907;SDS011;39320;53.214;6.556;2023-05-13T05:26:56;8.30;;;6.22;;
51907;SDS011;39320;53.214;6.556;2023-05-13T05:29:22;8.80;;;7.22;;
51907;SDS011;39320;53.214;6.556;2023-05-13T05:31:48;8.88;;;6.45;;
51907;SDS011;39320;53.214;6.556;2023-05-13T05:34:13;7.97;;;6.43;;
51907;SDS011;39320;53.214;6.556;2023-05-13T05:36:39;8.90;;;6.28;;
51907;SDS011;39320;53.214;6.556;2023-05-13T05:39:05;7.40;;;6.50;;
51907;SDS011;39320;53.214;6.556;2023-05-13T05:41:31;7.45;;;6.43;;
51907;SDS011;39320;53.214;6.556;2023-05-13T05:43:57;6.85;;;6.15;;
51907;SDS011;39320;53.214;6.556;2023-05-13T05:46:23;9.75;;;6.25;;
51907;SDS011;39320;53.214;6.556;2023-05-13T05:48:49;6.53;;;5.95;;
51907;SDS011;39320;53.214;6.556;2023-05-13T05:51:15;9.82;;;7.28;;
51907;SDS011;39320;53.214;6.556;2023-05-13T05:53:40;7.32;;;6.60;;
51907;SDS011;39320;53.214;6.556;2023-05-13T05:56:06;8.30;;;6.70;;
51907;SDS011;39320;53.214;6.556;2023-05-13T05:58:33;7.55;;;6.15;;
51907;SDS011;39320;53.214;6.556;2023-05-13T06:01:00;7.43;;;6.05;;
51907;SDS011;39320;53.214;6.556;2023-05-13T06:03:28;7.32;;;6.15;;
51907;SDS011;39320;53.214;6.556;2023-05-13T06:05:54;8.00;;;6.43;;
51907;SDS011;39320;53.214;6.556;2023-05-13T06:08:20;7.90;;;6.80;;
51907;SDS011;39320;53.214;6.556;2023-05-13T06:10:52;7.32;;;6.53;;
51907;SDS011;39320;53.214;6.556;2023-05-13T06:13:17;6.75;;;6.07;;
51907;SDS011;39320;53.214;6.556;2023-05-13T06:15:43;6.82;;;5.90;;
51907;SDS011;39320;53.214;6.556;2023-05-13T06:18:09;7.35;;;6.65;;
51907;SDS011;39320;53.214;6.556;2023-05-13T06:20:34;7.93;;;7.22;;
51907;SDS011;39320;53.214;6.556;2023-05-13T06:23:00;8.20;;;5.95;;
51907;SDS011;39320;53.214;6.556;2023-05-13T06:25:26;6.97;;;6.18;;
51907;SDS011;39320;53.214;6.556;2023-05-13T06:27:52;8.00;;;6.50;;
51907;SDS011;39320;53.214;6.556;2023-05-13T06:30:18;8.13;;;6.88;;
51907;SDS011;39320;53.214;6.556;2023-05-13T06:32:43;10.32;;;7.15;;
51907;SDS011;39320;53.214;6.556;2023-05-13T06:35:09;6.22;;;5.55;;
51907;SDS011;39320;53.214;6.556;2023-05-13T06:37:35;8.80;;;6.78;;
51907;SDS011;39320;53.214;6.556;2023-05-13T06:40:00;10.27;;;7.18;;
51907;SDS011;39320;53.214;6.556;2023-05-13T06:42:27;8.25;;;6.30;;
51907;SDS011;39320;53.214;6.556;2023-05-13T06:44:52;7.05;;;6.13;;
51907;SDS011;39320;53.214;6.556;2023-05-13T06:47:18;8.48;;;6.32;;
51907;SDS011;39320;53.214;6.556;2023-05-13T06:49:44;6.43;;;5.65;;
51907;SDS011;39320;53.214;6.556;2023-05-13T06:52:10;7.82;;;6.30;;
51907;SDS011;39320;53.214;6.556;2023-05-13T06:54:36;8.23;;;6.57;;
51907;SDS011;39320;53.214;6.556;2023-05-13T06:57:02;7.63;;;6.07;;
51907;SDS011;39320;53.214;6.556;2023-05-13T06:59:30;7.43;;;6.68;;
51907;SDS011;39320;53.214;6.556;2023-05-13T07:01:55;7.60;;;5.78;;
51907;SDS011;39320;53.214;6.556;2023-05-13T07:04:21;7.07;;;6.07;;
51907;SDS011;39320;53.214;6.556;2023-05-13T07:06:47;8.18;;;6.57;;
51907;SDS011;39320;53.214;6.556;2023-05-13T07:09:13;7.10;;;6.07;;
51907;SDS011;39320;53.214;6.556;2023-05-13T07:11:38;7.78;;;6.97;;
51907;SDS011;39320;53.214;6.556;2023-05-13T07:14:04;7.70;;;6.00;;
51907;SDS011;39320;53.214;6.556;2023-05-13T07:16:30;7.07;;;5.88;;
51907;SDS011;39320;53.214;6.556;2023-05-13T07:18:59;7.15;;;5.97;;
51907;SDS011;39320;53.214;6.556;2023-05-13T07:21:25;8.07;;;7.28;;
51907;SDS011;39320;53.214;6.556;2023-05-13T07:23:51;6.90;;;6.18;;
51907;SDS011;39320;53.214;6.556;2023-05-13T07:26:16;7.00;;;6.30;;
51907;SDS011;39320;53.214;6.556;2023-05-13T07:28:42;9.02;;;7.28;;
51907;SDS011;39320;53.214;6.556;2023-05-13T07:31:08;7.72;;;6.47;;
51907;SDS011;39320;53.214;6.556;2023-05-13T07:33:34;9.70;;;6.95;;
51907;SDS011;39320;53.214;6.556;2023-05-13T07:36:00;7.82;;;7.03;;
51907;SDS011;39320;53.214;6.556;2023-05-13T07:38:26;6.88;;;6.20;;
51907;SDS011;39320;53.214;6.556;2023-05-13T07:40:51;7.00;;;6.30;;
51907;SDS011;39320;53.214;6.556;2023-05-13T07:43:17;7.30;;;6.00;;
51907;SDS011;39320;53.214;6.556;2023-05-13T07:45:48;7.63;;;6.22;;
51907;SDS011;39320;53.214;6.556;2023-05-13T07:48:15;6.88;;;6.25;;
51907;SDS011;39320;53.214;6.556;2023-05-13T07:50:42;11.25;;;6.47;;
51907;SDS011;39320;53.214;6.556;2023-05-13T07:53:09;8.85;;;6.40;;
51907;SDS011;39320;53.214;6.556;2023-05-13T07:55:35;7.55;;;6.45;;
51907;SDS011;39320;53.214;6.556;2023-05-13T07:58:00;9.52;;;6.85;;
51907;SDS011;39320;53.214;6.556;2023-05-13T08:00:26;7.20;;;6.03;;
51907;SDS011;39320;53.214;6.556;2023-05-13T08:02:52;7.15;;;6.38;;
51907;SDS011;39320;53.214;6.556;2023-05-13T08:05:18;6.70;;;5.90;;
51907;SDS011;39320;53.214;6.556;2023-05-13T08:07:44;7.47;;;6.25;;
51907;SDS011;39320;53.214;6.556;2023-05-13T08:10:10;8.00;;;5.50;;
51907;SDS011;39320;53.214;6.556;2023-05-13T08:12:36;6.70;;;5.40;;
51907;SDS011;39320;53.214;6.556;2023-05-13T08:15:02;5.75;;;5.15;;
51907;SDS011;39320;53.214;6.556;2023-05-13T08:17:29;6.03;;;5.43;;
51907;SDS011;39320;53.214;6.556;2023-05-13T08:19:55;9.23;;;5.20;;
51907;SDS011;39320;53.214;6.556;2023-05-13T08:22:20;9.00;;;5.30;;
51907;SDS011;39320;53.214;6.556;2023-05-13T08:24:46;6.20;;;4.60;;
51907;SDS011;39320;53.214;6.556;2023-05-13T08:27:12;5.85;;;4.80;;
51907;SDS011;39320;53.214;6.556;2023-05-13T08:29:38;6.13;;;5.07;;
51907;SDS011;39320;53.214;6.556;2023-05-13T08:32:04;5.97;;;4.82;;
51907;SDS011;39320;53.214;6.556;2023-05-13T08:34:30;8.23;;;5.00;;
51907;SDS011;39320;53.214;6.556;2023-05-13T08:36:56;7.00;;;4.82;;
51907;SDS011;39320;53.214;6.556;2023-05-13T08:39:21;5.97;;;5.20;;
51907;SDS011;39320;53.214;6.556;2023-05-13T08:41:47;5.63;;;5.10;;
51907;SDS011;39320;53.214;6.556;2023-05-13T08:44:16;6.70;;;4.82;;
51907;SDS011;39320;53.214;6.556;2023-05-13T08:46:45;8.32;;;5.75;;
51907;SDS011;39320;53.214;6.556;2023-05-13T08:49:18;5.82;;;4.68;;
51907;SDS011;39320;53.214;6.556;2023-05-13T08:51:45;6.70;;;4.85;;
51907;SDS011;39320;53.214;6.556;2023-05-13T08:54:11;5.45;;;4.93;;
51907;SDS011;39320;53.214;6.556;2023-05-13T08:56:37;6.70;;;4.78;;
51907;SDS011;39320;53.214;6.556;2023-05-13T08:59:03;7.03;;;4.82;;
51907;SDS011;39320;53.214;6.556;2023-05-13T09:01:29;6.15;;;5.40;;
51907;SDS011;39320;53.214;6.556;2023-05-13T09:04:01;5.50;;;4.63;;
51907;SDS011;39320;53.214;6.556;2023-05-13T09:06:31;6.35;;;5.05;;
51907;SDS011;39320;53.214;6.556;2023-05-13T09:08:57;5.35;;;4.70;;
51907;SDS011;39320;53.214;6.556;2023-05-13T09:11:23;5.43;;;4.28;;
51907;SDS011;39320;53.214;6.556;2023-05-13T09:13:57;5.70;;;4.10;;
51907;SDS011;39320;53.214;6.556;2023-05-13T09:16:24;5.28;;;4.28;;
51907;SDS011;39320;53.214;6.556;2023-05-13T09:18:56;6.35;;;4.18;;
51907;SDS011;39320;53.214;6.556;2023-05-13T09:21:29;4.72;;;3.67;;
51907;SDS011;39320;53.214;6.556;2023-05-13T09:26:31;6.18;;;4.93;;
51907;SDS011;39320;53.214;6.556;2023-05-13T09:31:53;4.95;;;4.10;;
51907;SDS011;39320;53.214;6.556;2023-05-13T09:34:30;7.43;;;4.72;;
51907;SDS011;39320;53.214;6.556;2023-05-13T09:37:07;6.07;;;4.93;;
51907;SDS011;39320;53.214;6.556;2023-05-13T09:39:34;7.63;;;4.38;;
51907;SDS011;39320;53.214;6.556;2023-05-13T09:42:03;5.45;;;4.40;;
51907;SDS011;39320;53.214;6.556;2023-05-13T09:44:30;7.20;;;5.15;;
51907;SDS011;39320;53.214;6.556;2023-05-13T09:46:56;7.47;;;5.20;;
51907;SDS011;39320;53.214;6.556;2023-05-13T09:49:23;7.25;;;5.60;;
51907;SDS011;39320;53.214;6.556;2023-05-13T09:51:51;5.70;;;4.43;;
51907;SDS011;39320;53.214;6.556;2023-05-13T09:54:17;7.15;;;4.70;;
51907;SDS011;39320;53.214;6.556;2023-05-13T09:56:43;5.72;;;4.28;;
51907;SDS011;39320;53.214;6.556;2023-05-13T09:59:08;5.47;;;4.55;;
51907;SDS011;39320;53.214;6.556;2023-05-13T10:01:34;6.85;;;5.25;;
51907;SDS011;39320;53.214;6.556;2023-05-13T10:04:00;8.00;;;5.43;;
51907;SDS011;39320;53.214;6.556;2023-05-13T10:06:28;5.85;;;5.35;;
51907;SDS011;39320;53.214;6.556;2023-05-13T10:08:55;7.60;;;5.35;;
51907;SDS011;39320;53.214;6.556;2023-05-13T10:11:23;6.18;;;5.28;;
51907;SDS011;39320;53.214;6.556;2023-05-13T10:14:01;5.97;;;5.20;;
51907;SDS011;39320;53.214;6.556;2023-05-13T10:16:30;6.28;;;5.60;;
51907;SDS011;39320;53.214;6.556;2023-05-13T10:18:57;6.75;;;5.10;;
51907;SDS011;39320;53.214;6.556;2023-05-13T10:21:23;5.47;;;4.53;;
51907;SDS011;39320;53.214;6.556;2023-05-13T10:23:50;5.78;;;5.13;;
51907;SDS011;39320;53.214;6.556;2023-05-13T10:26:17;6.60;;;5.07;;
51907;SDS011;39320;53.214;6.556;2023-05-13T10:28:46;6.57;;;5.25;;
51907;SDS011;39320;53.214;6.556;2023-05-13T10:31:13;5.30;;;4.80;;
51907;SDS011;39320;53.214;6.556;2023-05-13T10:33:40;5.53;;;5.03;;
51907;SDS011;39320;53.214;6.556;2023-05-13T10:36:12;7.38;;;5.45;;
51907;SDS011;39320;53.214;6.556;2023-05-13T10:44:18;5.32;;;4.82;;
51907;SDS011;39320;53.214;6.556;2023-05-13T10:46:46;5.95;;;4.43;;
51907;SDS011;39320;53.214;6.556;2023-05-13T10:49:13;6.03;;;5.32;;
51907;SDS011;39320;53.214;6.556;2023-05-13T10:51:45;5.28;;;4.50;;
51907;SDS011;39320;53.214;6.556;2023-05-13T10:54:22;7.70;;;5.35;;
51907;SDS011;39320;53.214;6.556;2023-05-13T10:56:58;7.70;;;4.68;;
51907;SDS011;39320;53.214;6.556;2023-05-13T10:59:25;5.90;;;4.90;;
51907;SDS011;39320;53.214;6.556;2023-05-13T11:01:54;5.88;;;4.85;;
51907;SDS011;39320;53.214;6.556;2023-05-13T11:04:20;7.00;;;5.40;;
51907;SDS011;39320;53.214;6.556;2023-05-13T11:06:48;7.45;;;5.25;;
51907;SDS011;39320;53.214;6.556;2023-05-13T11:09:27;7.45;;;5.85;;
51907;SDS011;39320;53.214;6.556;2023-05-13T11:11:55;6.80;;;5.47;;
51907;SDS011;39320;53.214;6.556;2023-05-13T11:14:25;8.10;;;5.05;;
51907;SDS011;39320;53.214;6.556;2023-05-13T11:16:52;7.18;;;4.40;;
51907;SDS011;39320;53.214;6.556;2023-05-13T11:19:43;5.60;;;4.20;;
51907;SDS011;39320;53.214;6.556;2023-05-13T11:25:01;4.82;;;4.30;;
51907;SDS011;39320;53.214;6.556;2023-05-13T11:27:36;6.60;;;5.40;;
51907;SDS011;39320;53.214;6.556;2023-05-13T11:30:07;7.03;;;5.53;;
51907;SDS011;39320;53.214;6.556;2023-05-13T11:32:51;8.10;;;6.15;;
51907;SDS011;39320;53.214;6.556;2023-05-13T11:35:21;6.88;;;5.90;;
51907;SDS011;39320;53.214;6.556;2023-05-13T11:37:48;6.25;;;5.65;;
51907;SDS011;39320;53.214;6.556;2023-05-13T11:40:23;5.80;;;5.18;;
51907;SDS011;39320;53.214;6.556;2023-05-13T11:42:50;6.10;;;5.53;;
51907;SDS011;39320;53.214;6.556;2023-05-13T11:45:16;8.40;;;6.50;;
51907;SDS011;39320;53.214;6.556;2023-05-13T11:47:43;8.00;;;5.82;;
51907;SDS011;39320;53.214;6.556;2023-05-13T11:50:18;6.53;;;5.82;;
51907;SDS011;39320;53.214;6.556;2023-05-13T11:52:49;6.53;;;5.85;;
51907;SDS011;39320;53.214;6.556;2023-05-13T11:57:51;7.78;;;6.32;;
51907;SDS011;39320;53.214;6.556;2023-05-13T12:00:25;9.98;;;6.60;;
51907;SDS011;39320;53.214;6.556;2023-05-13T12:02:55;7.38;;;5.63;;
51907;SDS011;39320;53.214;6.556;2023-05-13T12:05:21;7.25;;;5.57;;
51907;SDS011;39320;53.214;6.556;2023-05-13T12:07:48;7.18;;;5.90;;
51907;SDS011;39320;53.214;6.556;2023-05-13T12:10:15;7.82;;;5.93;;
51907;SDS011;39320;53.214;6.556;2023-05-13T12:12:42;5.38;;;4.65;;
51907;SDS011;39320;53.214;6.556;2023-05-13T12:15:13;6.32;;;4.20;;
51907;SDS011;39320;53.214;6.556;2023-05-13T12:17:41;9.55;;;5.85;;
51907;SDS011;39320;53.214;6.556;2023-05-13T12:20:08;7.07;;;5.97;;
51907;SDS011;39320;53.214;6.556;2023-05-13T12:22:36;7.55;;;6.13;;
51907;SDS011;39320;53.214;6.556;2023-05-13T12:33:23;6.28;;;5.68;;
51907;SDS011;39320;53.214;6.556;2023-05-13T12:35:52;7.65;;;5.95;;
51907;SDS011;39320;53.214;6.556;2023-05-13T12:38:19;7.03;;;5.60;;
51907;SDS011;39320;53.214;6.556;2023-05-13T12:40:48;9.25;;;5.80;;
51907;SDS011;39320;53.214;6.556;2023-05-13T12:43:15;7.30;;;5.95;;
51907;SDS011;39320;53.214;6.556;2023-05-13T12:45:44;7.20;;;5.85;;
51907;SDS011;39320;53.214;6.556;2023-05-13T12:48:11;6.95;;;6.20;;
51907;SDS011;39320;53.214;6.556;2023-05-13T12:50:38;6.85;;;5.78;;
51907;SDS011;39320;53.214;6.556;2023-05-13T12:53:04;6.25;;;5.03;;
51907;SDS011;39320;53.214;6.556;2023-05-13T12:55:30;7.82;;;5.10;;
51907;SDS011;39320;53.214;6.556;2023-05-13T12:58:00;6.50;;;5.45;;
51907;SDS011;39320;53.214;6.556;2023-05-13T13:00:28;5.88;;;5.20;;
51907;SDS011;39320;53.214;6.556;2023-05-13T13:02:55;5.72;;;4.45;;
51907;SDS011;39320;53.214;6.556;2023-05-13T13:05:21;6.65;;;5.00;;
51907;SDS011;39320;53.214;6.556;2023-05-13T13:07:48;8.15;;;5.40;;
51907;SDS011;39320;53.214;6.556;2023-05-13T13:10:14;5.55;;;4.03;;
51907;SDS011;39320;53.214;6.556;2023-05-13T13:12:40;6.65;;;4.88;;
51907;SDS011;39320;53.214;6.556;2023-05-13T13:15:06;5.75;;;4.85;;
51907;SDS011;39320;53.214;6.556;2023-05-13T13:17:33;5.75;;;4.72;;
51907;SDS011;39320;53.214;6.556;2023-05-13T13:19:59;6.95;;;4.40;;
51907;SDS011;39320;53.214;6.556;2023-05-13T13:22:25;6.55;;;4.57;;
51907;SDS011;39320;53.214;6.556;2023-05-13T13:24:51;5.70;;;4.18;;
51907;SDS011;39320;53.214;6.556;2023-05-13T13:27:17;6.25;;;4.30;;
51907;SDS011;39320;53.214;6.556;2023-05-13T13:29:43;3.92;;;3.55;;
51907;SDS011;39320;53.214;6.556;2023-05-13T13:32:09;7.05;;;3.60;;
51907;SDS011;39320;53.214;6.556;2023-05-13T13:34:35;7.03;;;4.20;;
51907;SDS011;39320;53.214;6.556;2023-05-13T13:37:02;5.93;;;4.28;;
51907;SDS011;39320;53.214;6.556;2023-05-13T13:39:28;5.03;;;4.38;;
51907;SDS011;39320;53.214;6.556;2023-05-13T13:41:56;5.70;;;3.83;;
51907;SDS011;39320;53.214;6.556;2023-05-13T13:44:22;3.58;;;3.20;;
51907;SDS011;39320;53.214;6.556;2023-05-13T13:46:48;5.28;;;3.50;;
51907;SDS011;39320;53.214;6.556;2023-05-13T13:49:14;7.93;;;3.38;;
51907;SDS011;39320;53.214;6.556;2023-05-13T13:51:42;5.18;;;3.50;;
51907;SDS011;39320;53.214;6.556;2023-05-13T13:54:07;4.50;;;3.40;;
51907;SDS011;39320;53.214;6.556;2023-05-13T13:56:36;4.72;;;3.45;;
51907;SDS011;39320;53.214;6.556;2023-05-13T13:59:02;5.40;;;3.08;;
51907;SDS011;39320;53.214;6.556;2023-05-13T14:01:28;3.30;;;2.92;;
51907;SDS011;39320;53.214;6.556;2023-05-13T14:06:57;5.72;;;3.38;;
51907;SDS011;39320;53.214;6.556;2023-05-13T14:09:23;5.00;;;3.25;;
51907;SDS011;39320;53.214;6.556;2023-05-13T14:11:49;5.45;;;3.15;;
51907;SDS011;39320;53.214;6.556;2023-05-13T14:14:16;4.88;;;2.78;;
51907;SDS011;39320;53.214;6.556;2023-05-13T14:16:43;6.32;;;3.08;;
51907;SDS011;39320;53.214;6.556;2023-05-13T14:19:12;4.95;;;3.95;;
51907;SDS011;39320;53.214;6.556;2023-05-13T14:21:37;4.60;;;2.80;;
51907;SDS011;39320;53.214;6.556;2023-05-13T14:24:04;5.50;;;3.38;;
51907;SDS011;39320;53.214;6.556;2023-05-13T14:26:32;4.10;;;3.03;;
51907;SDS011;39320;53.214;6.556;2023-05-13T14:28:58;5.65;;;2.97;;
51907;SDS011;39320;53.214;6.556;2023-05-13T14:31:27;3.58;;;2.92;;
51907;SDS011;39320;53.214;6.556;2023-05-13T14:33:53;7.18;;;3.08;;
51907;SDS011;39320;53.214;6.556;2023-05-13T14:36:20;5.50;;;2.88;;
51907;SDS011;39320;53.214;6.556;2023-05-13T14:38:46;6.60;;;3.00;;
51907;SDS011;39320;53.214;6.556;2023-05-13T14:41:12;5.55;;;3.63;;
51907;SDS011;39320;53.214;6.556;2023-05-13T14:43:44;4.13;;;3.00;;
51907;SDS011;39320;53.214;6.556;2023-05-13T14:46:11;5.05;;;3.33;;
51907;SDS011;39320;53.214;6.556;2023-05-13T14:48:37;5.63;;;3.10;;
51907;SDS011;39320;53.214;6.556;2023-05-13T14:51:03;7.50;;;6.70;;
51907;SDS011;39320;53.214;6.556;2023-05-13T14:53:29;4.43;;;3.33;;
51907;SDS011;39320;53.214;6.556;2023-05-13T14:55:54;7.43;;;3.35;;
51907;SDS011;39320;53.214;6.556;2023-05-13T14:58:21;5.32;;;3.78;;
51907;SDS011;39320;53.214;6.556;2023-05-13T15:00:47;4.63;;;3.85;;
51907;SDS011;39320;53.214;6.556;2023-05-13T15:03:13;5.22;;;3.40;;
51907;SDS011;39320;53.214;6.556;2023-05-13T15:05:41;5.88;;;3.33;;
51907;SDS011;39320;53.214;6.556;2023-05-13T15:08:07;5.22;;;3.58;;
51907;SDS011;39320;53.214;6.556;2023-05-13T15:10:33;5.00;;;2.95;;
51907;SDS011;39320;53.214;6.556;2023-05-13T15:12:59;4.55;;;3.38;;
51907;SDS011;39320;53.214;6.556;2023-05-13T15:15:25;6.50;;;2.90;;
51907;SDS011;39320;53.214;6.556;2023-05-13T15:17:50;5.13;;;3.53;;